Time;durP1;ratioP1;P1;durP2;ratioP2;P2;SDS_P1;SDS_P2;PMS_P1;PMS_P2;Temp;Humidity;BMP_temperature;BMP_pressure;BME280_temperature;BME280_humidity;BME280_pressure;Samples;Min_cycle;Max_cycle;Signal;HPM_P1;HPM_P2
2023/09/02 00:01:20;;;;;;;62.67;32.47;;;;;;;;;;4989847;28;99067;-74
2023/09/02 00:03:46;;;;;;;63.55;31.98;;;;;;;;;;4990307;28;99191;-73
2023/09/02 00:06:13;;;;;;;68.72;31.70;;;;;;;;;;4988592;28;100121;-73
2023/09/02 00:08:43;;;;;;;70.28;34.03;;;;;;;;;;4993285;28;99710;-72
2023/09/02 00:11:09;;;;;;;60.83;30.42;;;;;;;;;;4989752;28;99297;-72
2023/09/02 00:13:37;;;;;;;59.15;30.85;;;;;;;;;;4989143;28;99903;-73
2023/09/02 00:16:03;;;;;;;63.17;31.67;;;;;;;;;;4989899;28;99990;-74
2023/09/02 00:18:30;;;;;;;60.45;30.90;;;;;;;;;;4990030;28;99678;-74
2023/09/02 00:20:57;;;;;;;56.55;31.10;;;;;;;;;;4988550;28;100348;-72
2023/09/02 00:23:23;;;;;;;57.25;31.02;;;;;;;;;;4989022;28;100405;-72
2023/09/02 00:25:50;;;;;;;54.25;29.48;;;;;;;;;;4989510;28;100113;-72
2023/09/02 00:28:16;;;;;;;60.45;29.35;;;;;;;;;;4989208;28;99667;-73
2023/09/02 00:30:42;;;;;;;59.67;29.92;;;;;;;;;;4992833;28;99005;-73
2023/09/02 00:33:10;;;;;;;55.08;28.90;;;;;;;;;;4989432;28;98817;-73
2023/09/02 00:35:36;;;;;;;57.45;30.63;;;;;;;;;;4988608;28;98993;-72
2023/09/02 00:38:03;;;;;;;62.65;31.23;;;;;;;;;;4989222;28;100611;-73
2023/09/02 00:40:30;;;;;;;57.22;30.50;;;;;;;;;;4988345;28;99105;-72
2023/09/02 00:42:57;;;;;;;60.00;29.15;;;;;;;;;;4988648;28;98683;-72
2023/09/02 00:45:24;;;;;;;61.08;30.52;;;;;;;;;;4989062;28;99295;-73
2023/09/02 00:47:53;;;;;;;68.90;30.23;;;;;;;;;;4988462;28;99491;-73
2023/09/02 00:50:20;;;;;;;60.53;32.35;;;;;;;;;;4988802;28;99577;-73
2023/09/02 00:52:47;;;;;;;55.97;29.92;;;;;;;;;;4992567;28;99498;-74
2023/09/02 00:55:14;;;;;;;64.40;30.40;;;;;;;;;;4986567;28;102609;-73
2023/09/02 00:57:41;;;;;;;69.35;32.53;;;;;;;;;;4989158;28;99585;-73
2023/09/02 01:00:08;;;;;;;63.13;30.73;;;;;;;;;;4987813;28;102457;-73
2023/09/02 01:02:36;;;;;;;62.03;29.75;;;;;;;;;;4987960;28;99118;-73
2023/09/02 01:05:02;;;;;;;64.40;31.17;;;;;;;;;;4988371;28;99482;-73
2023/09/02 01:07:29;;;;;;;63.33;30.55;;;;;;;;;;4988673;28;98853;-73
2023/09/02 01:09:56;;;;;;;64.55;30.88;;;;;;;;;;4988465;28;99253;-73
2023/09/02 01:12:23;;;;;;;60.97;30.23;;;;;;;;;;4987004;28;100959;-73
2023/09/02 01:14:49;;;;;;;53.03;29.00;;;;;;;;;;4990469;28;101290;-73
2023/09/02 01:17:16;;;;;;;53.40;28.35;;;;;;;;;;4987840;28;99300;-73
2023/09/02 01:19:43;;;;;;;56.03;29.08;;;;;;;;;;4989110;28;98731;-74
2023/09/02 01:22:12;;;;;;;55.33;27.33;;;;;;;;;;4987825;28;100934;-73
2023/09/02 01:24:39;;;;;;;55.10;29.10;;;;;;;;;;4988051;28;99416;-73
2023/09/02 01:27:15;;;;;;;47.53;27.63;;;;;;;;;;4988801;28;98819;-72
2023/09/02 01:29:45;;;;;;;58.30;28.17;;;;;;;;;;4989429;28;99034;-72
2023/09/02 01:32:13;;;;;;;55.67;28.17;;;;;;;;;;4986303;28;100598;-72
2023/09/02 01:34:41;;;;;;;66.15;29.90;;;;;;;;;;4988542;28;99246;-73
2023/09/02 01:37:08;;;;;;;61.55;29.27;;;;;;;;;;4990494;28;99230;-74
2023/09/02 01:39:37;;;;;;;58.78;29.08;;;;;;;;;;4988230;28;98857;-73
2023/09/02 01:42:04;;;;;;;58.20;30.02;;;;;;;;;;4988274;28;98889;-74
2023/09/02 01:44:31;;;;;;;54.72;26.58;;;;;;;;;;4987847;28;99610;-74
2023/09/02 01:47:01;;;;;;;51.88;26.88;;;;;;;;;;4988626;28;99154;-73
2023/09/02 01:49:28;;;;;;;47.75;25.15;;;;;;;;;;4988032;28;99145;-74
2023/09/02 01:51:57;;;;;;;53.95;27.27;;;;;;;;;;4987318;28;98998;-73
2023/09/02 01:54:25;;;;;;;54.00;24.70;;;;;;;;;;4988435;28;98951;-75
2023/09/02 01:56:52;;;;;;;47.13;27.00;;;;;;;;;;4991436;28;99445;-73
2023/09/02 01:59:18;;;;;;;49.63;25.70;;;;;;;;;;4985764;28;101637;-73
2023/09/02 02:01:44;;;;;;;56.53;26.17;;;;;;;;;;4986391;28;99544;-74
2023/09/02 02:04:29;;;;;;;52.97;28.52;;;;;;;;;;4988136;28;98982;-73
2023/09/02 02:06:59;;;;;;;58.83;28.55;;;;;;;;;;4985787;28;99082;-73
2023/09/02 02:09:47;;;;;;;60.22;29.23;;;;;;;;;;4986289;28;99213;-74
2023/09/02 02:12:14;;;;;;;65.70;29.30;;;;;;;;;;4985675;28;100215;-74
2023/09/02 02:14:40;;;;;;;65.60;29.20;;;;;;;;;;4987425;28;99329;-73
2023/09/02 02:17:07;;;;;;;66.90;28.38;;;;;;;;;;4987847;28;99185;-74
2023/09/02 02:19:34;;;;;;;57.80;28.80;;;;;;;;;;4990717;28;98405;-73
2023/09/02 02:22:00;;;;;;;73.32;30.40;;;;;;;;;;4987958;28;98529;-74
2023/09/02 02:24:27;;;;;;;62.17;30.48;;;;;;;;;;4987604;28;99269;-74
2023/09/02 02:26:53;;;;;;;70.70;27.85;;;;;;;;;;4986674;28;99724;-74
2023/09/02 02:29:19;;;;;;;70.00;30.38;;;;;;;;;;4987415;28;99826;-74
2023/09/02 02:31:46;;;;;;;77.40;30.08;;;;;;;;;;5019785;28;100501;-74
2023/09/02 02:34:13;;;;;;;66.88;29.50;;;;;;;;;;4986352;28;100157;-73
2023/09/02 02:36:39;;;;;;;84.07;30.73;;;;;;;;;;4987668;28;98876;-74
2023/09/02 02:39:06;;;;;;;78.18;28.30;;;;;;;;;;4986301;28;101750;-74
2023/09/02 02:41:33;;;;;;;71.72;29.75;;;;;;;;;;4989591;28;99442;-73
2023/09/02 02:43:59;;;;;;;71.15;30.88;;;;;;;;;;4986747;28;101648;-74
2023/09/02 02:46:26;;;;;;;66.78;27.20;;;;;;;;;;4985866;28;100165;-73
2023/09/02 02:48:52;;;;;;;136.13;27.55;;;;;;;;;;4986681;28;98538;-73
2023/09/02 02:51:19;;;;;;;106.72;28.15;;;;;;;;;;4985666;28;101722;-73
2023/09/02 02:53:46;;;;;;;157.90;29.35;;;;;;;;;;4986546;28;101583;-73
2023/09/02 02:56:13;;;;;;;173.98;28.65;;;;;;;;;;4987049;28;99324;-75
2023/09/02 02:58:40;;;;;;;301.30;32.38;;;;;;;;;;4985986;28;102594;-73
2023/09/02 03:01:11;;;;;;;258.83;31.33;;;;;;;;;;4985964;28;101461;-73
2023/09/02 03:03:42;;;;;;;233.88;29.80;;;;;;;;;;4990095;28;98710;-74
2023/09/02 03:06:09;;;;;;;120.53;28.15;;;;;;;;;;4986501;28;99826;-74
2023/09/02 03:08:38;;;;;;;165.38;29.58;;;;;;;;;;4986879;28;99326;-73
2023/09/02 03:11:07;;;;;;;197.43;31.40;;;;;;;;;;4985754;28;101025;-73
2023/09/02 03:13:35;;;;;;;230.25;31.77;;;;;;;;;;4985436;28;100031;-74
2023/09/02 03:16:18;;;;;;;138.75;29.38;;;;;;;;;;4983689;28;101660;-74
2023/09/02 03:18:47;;;;;;;172.18;27.95;;;;;;;;;;4985954;28;101681;-72
2023/09/02 03:21:13;;;;;;;172.38;30.15;;;;;;;;;;4985586;28;100926;-74
2023/09/02 03:23:40;;;;;;;125.03;26.95;;;;;;;;;;4984940;28;100199;-73
2023/09/02 03:26:10;;;;;;;230.82;31.70;;;;;;;;;;4990291;28;99187;-74
2023/09/02 03:28:38;;;;;;;147.05;24.98;;;;;;;;;;4985631;28;102757;-73
2023/09/02 03:31:05;;;;;;;226.32;30.02;;;;;;;;;;4984901;28;99110;-73
2023/09/02 03:33:33;;;;;;;232.85;30.65;;;;;;;;;;4985612;28;101533;-73
2023/09/02 03:35:59;;;;;;;135.07;28.15;;;;;;;;;;4985417;28;100711;-73
2023/09/02 03:38:27;;;;;;;114.03;26.55;;;;;;;;;;4986096;28;99651;-73
2023/09/02 03:40:53;;;;;;;155.57;28.92;;;;;;;;;;4984794;28;100833;-73
2023/09/02 03:43:20;;;;;;;144.77;29.40;;;;;;;;;;4985141;28;99950;-74
2023/09/02 03:45:48;;;;;;;158.73;29.73;;;;;;;;;;4984587;28;99259;-73
2023/09/02 03:48:18;;;;;;;136.82;30.65;;;;;;;;;;4988175;28;98430;-73
2023/09/02 03:51:00;;;;;;;218.27;29.42;;;;;;;;;;4984544;28;102190;-73
2023/09/02 03:53:28;;;;;;;104.57;26.13;;;;;;;;;;4984954;28;102476;-73
2023/09/02 03:55:54;;;;;;;129.88;27.08;;;;;;;;;;4985292;28;101823;-73
2023/09/02 03:58:22;;;;;;;163.25;28.02;;;;;;;;;;4984647;28;101061;-73
2023/09/02 04:00:48;;;;;;;131.43;26.48;;;;;;;;;;4985014;28;99143;-74
2023/09/02 04:03:19;;;;;;;86.25;26.02;;;;;;;;;;4984837;28;101164;-74
2023/09/02 04:05:47;;;;;;;73.50;25.08;;;;;;;;;;4983964;28;100057;-74
2023/09/02 04:08:18;;;;;;;157.07;28.40;;;;;;;;;;4989359;28;98782;-74
2023/09/02 04:10:44;;;;;;;157.98;28.50;;;;;;;;;;4985284;28;100246;-72
2023/09/02 04:13:11;;;;;;;157.02;27.27;;;;;;;;;;4986149;28;99327;-74
2023/09/02 04:15:37;;;;;;;132.40;25.00;;;;;;;;;;4987137;28;102742;-73
2023/09/02 04:18:05;;;;;;;100.85;24.63;;;;;;;;;;4988588;28;101296;-73
2023/09/02 04:20:34;;;;;;;223.85;28.95;;;;;;;;;;4988478;28;98863;-74
2023/09/02 04:23:02;;;;;;;144.98;26.70;;;;;;;;;;4988863;28;101753;-74
2023/09/02 04:25:28;;;;;;;183.20;26.85;;;;;;;;;;4988037;28;102051;-73
2023/09/02 04:27:55;;;;;;;219.02;30.38;;;;;;;;;;4987618;28;101672;-72
2023/09/02 04:30:24;;;;;;;208.55;29.75;;;;;;;;;;4990999;28;101842;-73
2023/09/02 04:32:51;;;;;;;159.25;25.00;;;;;;;;;;4987632;28;101270;-74
2023/09/02 04:35:17;;;;;;;157.13;26.27;;;;;;;;;;4989259;28;98870;-74
2023/09/02 04:37:44;;;;;;;277.17;31.20;;;;;;;;;;4987957;28;101528;-73
2023/09/02 04:40:13;;;;;;;166.82;29.02;;;;;;;;;;4988442;28;98929;-73
2023/09/02 04:42:41;;;;;;;195.73;28.52;;;;;;;;;;4988200;28;100369;-73
2023/09/02 04:45:08;;;;;;;132.07;26.52;;;;;;;;;;4988340;28;99693;-73
2023/09/02 04:47:34;;;;;;;201.95;29.17;;;;;;;;;;4987088;28;101557;-73
2023/09/02 04:50:02;;;;;;;231.95;29.67;;;;;;;;;;4987598;28;100883;-74
2023/09/02 04:52:28;;;;;;;283.15;32.38;;;;;;;;;;4990176;28;101204;-73
2023/09/02 04:54:55;;;;;;;340.00;32.97;;;;;;;;;;4987860;28;99625;-74
2023/09/02 04:57:21;;;;;;;311.33;35.42;;;;;;;;;;4987276;28;100493;-73
2023/09/02 04:59:48;;;;;;;316.05;34.60;;;;;;;;;;4987791;28;98920;-74
2023/09/02 05:02:15;;;;;;;125.85;24.70;;;;;;;;;;4986481;28;101852;-75
2023/09/02 05:04:42;;;;;;;161.35;24.98;;;;;;;;;;4987878;28;101368;-74
2023/09/02 05:07:08;;;;;;;196.77;29.92;;;;;;;;;;4988978;28;100176;-74
2023/09/02 05:09:36;;;;;;;161.60;26.75;;;;;;;;;;4988243;28;98954;-74
2023/09/02 05:12:04;;;;;;;211.15;28.73;;;;;;;;;;4988054;28;99521;-74
2023/09/02 05:14:30;;;;;;;193.00;26.30;;;;;;;;;;4990221;28;101959;-74
2023/09/02 05:16:58;;;;;;;149.32;26.73;;;;;;;;;;4986862;28;101946;-74
2023/09/02 05:19:26;;;;;;;184.55;28.25;;;;;;;;;;4986792;28;99744;-73
2023/09/02 05:21:52;;;;;;;159.23;26.27;;;;;;;;;;4988871;28;99710;-73
2023/09/02 05:24:19;;;;;;;179.98;29.67;;;;;;;;;;4986623;28;102166;-74
2023/09/02 05:26:45;;;;;;;237.07;29.75;;;;;;;;;;4988269;28;98781;-73
2023/09/02 05:29:15;;;;;;;155.13;29.25;;;;;;;;;;4985951;28;101778;-74
2023/09/02 05:31:41;;;;;;;208.32;27.90;;;;;;;;;;4988556;28;99531;-74
2023/09/02 05:34:09;;;;;;;267.15;31.38;;;;;;;;;;4988863;28;99047;-74
2023/09/02 05:36:36;;;;;;;167.18;31.50;;;;;;;;;;4991221;28;100601;-74
2023/09/02 05:39:03;;;;;;;215.90;27.77;;;;;;;;;;4988434;28;100153;-74
2023/09/02 05:41:29;;;;;;;258.48;27.23;;;;;;;;;;4987908;28;99987;-73
2023/09/02 05:43:55;;;;;;;268.10;28.00;;;;;;;;;;4986826;28;100807;-73
2023/09/02 05:46:22;;;;;;;169.25;22.88;;;;;;;;;;4988593;28;98867;-73
2023/09/02 05:48:48;;;;;;;197.98;24.48;;;;;;;;;;4988179;28;100136;-74
2023/09/02 05:51:15;;;;;;;234.98;27.52;;;;;;;;;;4987191;28;100204;-74
2023/09/02 05:53:41;;;;;;;377.10;30.08;;;;;;;;;;4988124;28;101472;-73
2023/09/02 05:56:08;;;;;;;204.60;22.38;;;;;;;;;;4991622;28;100008;-74
2023/09/02 05:58:34;;;;;;;281.95;25.17;;;;;;;;;;4987691;28;99173;-74
2023/09/02 06:01:04;;;;;;;218.50;21.20;;;;;;;;;;4988691;28;99938;-73
2023/09/02 06:03:31;;;;;;;205.82;20.70;;;;;;;;;;4987938;28;100520;-73
2023/09/02 06:05:57;;;;;;;219.98;20.45;;;;;;;;;;4987098;28;102452;-73
2023/09/02 06:08:24;;;;;;;218.95;22.10;;;;;;;;;;4987319;28;99593;-73
2023/09/02 06:11:00;;;;;;;119.70;18.08;;;;;;;;;;4987817;28;100160;-73
2023/09/02 06:13:27;;;;;;;136.85;20.15;;;;;;;;;;4986911;28;98904;-73
2023/09/02 06:15:56;;;;;;;152.70;20.48;;;;;;;;;;4987908;28;99174;-73
2023/09/02 06:18:23;;;;;;;140.32;19.67;;;;;;;;;;4990086;28;99342;-73
2023/09/02 06:20:49;;;;;;;164.48;19.90;;;;;;;;;;4987828;28;100081;-73
2023/09/02 06:23:16;;;;;;;94.53;19.50;;;;;;;;;;4987238;28;100177;-73
2023/09/02 06:25:42;;;;;;;118.00;18.30;;;;;;;;;;4987288;28;99016;-73
2023/09/02 06:28:10;;;;;;;131.77;22.17;;;;;;;;;;4988054;28;98971;-73
2023/09/02 06:30:37;;;;;;;126.13;18.58;;;;;;;;;;4987562;28;100360;-73
2023/09/02 06:33:03;;;;;;;100.63;20.92;;;;;;;;;;4986300;28;99979;-73
2023/09/02 06:35:30;;;;;;;107.35;18.52;;;;;;;;;;4987397;28;100988;-73
2023/09/02 06:37:57;;;;;;;81.60;17.85;;;;;;;;;;4986560;28;100586;-73
2023/09/02 06:40:23;;;;;;;85.75;17.70;;;;;;;;;;4990115;28;98918;-73
2023/09/02 06:42:50;;;;;;;73.22;17.23;;;;;;;;;;4987537;28;99320;-73
2023/09/02 06:45:16;;;;;;;97.30;20.15;;;;;;;;;;4987453;28;99033;-73
2023/09/02 06:47:43;;;;;;;132.48;16.58;;;;;;;;;;4986613;28;100072;-72
2023/09/02 06:50:09;;;;;;;63.05;16.85;;;;;;;;;;4987939;28;99328;-74
2023/09/02 06:52:36;;;;;;;70.82;14.15;;;;;;;;;;4987192;28;99551;-72
2023/09/02 06:55:03;;;;;;;85.13;17.48;;;;;;;;;;4986705;28;100294;-75
2023/09/02 06:57:30;;;;;;;46.17;14.95;;;;;;;;;;4987013;28;101066;-74
2023/09/02 06:59:56;;;;;;;57.08;15.52;;;;;;;;;;4987653;28;100314;-74
2023/09/02 07:02:22;;;;;;;55.78;15.05;;;;;;;;;;4989669;28;99897;-74
2023/09/02 07:04:49;;;;;;;80.85;17.33;;;;;;;;;;4987098;28;99899;-73
2023/09/02 07:07:16;;;;;;;67.90;15.70;;;;;;;;;;4983876;28;98952;-75
2023/09/02 07:09:43;;;;;;;47.50;16.60;;;;;;;;;;4986465;28;100230;-74
2023/09/02 07:12:09;;;;;;;58.63;16.05;;;;;;;;;;4987069;28;98975;-73
2023/09/02 07:14:35;;;;;;;59.47;16.75;;;;;;;;;;4986033;28;100443;-74
2023/09/02 07:17:02;;;;;;;24.40;15.25;;;;;;;;;;4987058;28;100479;-75
2023/09/02 07:19:29;;;;;;;25.75;13.93;;;;;;;;;;4986726;28;98994;-74
2023/09/02 07:21:56;;;;;;;28.23;14.27;;;;;;;;;;4985448;28;99268;-74
2023/09/02 07:24:23;;;;;;;23.52;13.90;;;;;;;;;;4989737;28;100983;-73
2023/09/02 07:26:49;;;;;;;28.60;14.25;;;;;;;;;;4986695;28;100093;-76
2023/09/02 07:29:16;;;;;;;24.23;14.48;;;;;;;;;;4986355;28;99517;-74
2023/09/02 07:31:42;;;;;;;25.80;15.02;;;;;;;;;;4987247;28;98936;-74
2023/09/02 07:34:09;;;;;;;22.05;14.50;;;;;;;;;;4986660;28;100012;-74
2023/09/02 07:36:36;;;;;;;22.60;14.02;;;;;;;;;;4985787;28;100399;-74
2023/09/02 07:39:02;;;;;;;25.55;13.90;;;;;;;;;;4987088;28;100227;-74
2023/09/02 07:41:30;;;;;;;24.95;14.48;;;;;;;;;;4986540;28;98495;-74
2023/09/02 07:43:57;;;;;;;30.15;14.38;;;;;;;;;;4985864;28;99720;-74
2023/09/02 07:46:26;;;;;;;20.40;13.23;;;;;;;;;;4989179;28;99989;-76
2023/09/02 07:48:52;;;;;;;21.50;13.65;;;;;;;;;;4986175;28;100404;-73
2023/09/02 07:51:19;;;;;;;18.10;13.30;;;;;;;;;;4989546;28;99942;-73
2023/09/02 07:53:45;;;;;;;20.80;14.30;;;;;;;;;;4989800;28;100015;-73
2023/09/02 07:56:13;;;;;;;20.27;14.57;;;;;;;;;;4989757;28;100274;-72
2023/09/02 07:58:42;;;;;;;20.52;15.23;;;;;;;;;;4989079;28;100662;-73
2023/09/02 08:01:08;;;;;;;21.38;14.68;;;;;;;;;;4990143;28;100203;-74
2023/09/02 08:03:35;;;;;;;18.55;14.18;;;;;;;;;;4990174;28;98801;-73
2023/09/02 08:06:08;;;;;;;23.52;13.40;;;;;;;;;;4992530;28;100038;-73
2023/09/02 08:08:35;;;;;;;20.98;14.43;;;;;;;;;;4989427;28;100231;-73
2023/09/02 08:11:02;;;;;;;19.30;13.75;;;;;;;;;;4988468;28;99912;-73
2023/09/02 08:13:29;;;;;;;24.88;16.05;;;;;;;;;;4989866;28;100614;-73
2023/09/02 08:15:56;;;;;;;23.00;15.27;;;;;;;;;;4989480;28;99532;-73
2023/09/02 08:18:22;;;;;;;16.98;12.68;;;;;;;;;;4988545;28;99925;-73
2023/09/02 08:20:49;;;;;;;21.88;13.85;;;;;;;;;;4989845;28;99881;-74
2023/09/02 08:23:15;;;;;;;18.33;14.00;;;;;;;;;;4990656;28;100177;-73
2023/09/02 08:25:42;;;;;;;23.10;14.85;;;;;;;;;;4988888;28;99902;-73
2023/09/02 08:28:09;;;;;;;20.40;14.48;;;;;;;;;;4993599;28;100119;-73
2023/09/02 08:30:38;;;;;;;18.85;13.52;;;;;;;;;;4989313;28;99910;-73
2023/09/02 08:33:07;;;;;;;23.63;15.07;;;;;;;;;;4988974;28;99116;-74
2023/09/02 08:35:37;;;;;;;21.80;13.90;;;;;;;;;;4989045;28;100227;-74
2023/09/02 08:38:03;;;;;;;21.33;14.45;;;;;;;;;;4989444;28;100127;-74
2023/09/02 08:40:30;;;;;;;18.63;13.43;;;;;;;;;;4988462;28;99077;-72
2023/09/02 08:43:00;;;;;;;18.92;14.80;;;;;;;;;;4989290;28;100145;-73
2023/09/02 08:45:28;;;;;;;19.48;14.75;;;;;;;;;;4989010;28;99957;-74
2023/09/02 08:47:59;;;;;;;22.88;15.55;;;;;;;;;;4988316;28;99170;-73
2023/09/02 08:50:29;;;;;;;23.73;15.73;;;;;;;;;;4992205;28;100296;-73
2023/09/02 08:52:56;;;;;;;26.55;15.10;;;;;;;;;;4989260;28;100157;-73
2023/09/02 08:55:24;;;;;;;23.27;16.65;;;;;;;;;;4988701;28;100610;-73
2023/09/02 08:57:51;;;;;;;24.25;15.77;;;;;;;;;;4989402;28;99137;-73
2023/09/02 09:00:18;;;;;;;25.20;16.10;;;;;;;;;;4987297;28;99945;-72
2023/09/02 09:02:45;;;;;;;22.23;15.00;;;;;;;;;;4988117;28;100399;-72
2023/09/02 09:05:12;;;;;;;22.45;15.02;;;;;;;;;;4988828;28;99820;-72
2023/09/02 09:07:41;;;;;;;24.23;15.55;;;;;;;;;;4988190;28;100357;-71
2023/09/02 09:10:09;;;;;;;25.40;16.70;;;;;;;;;;4988390;28;100399;-72
2023/09/02 09:12:36;;;;;;;25.70;16.88;;;;;;;;;;4989594;28;99926;-72
2023/09/02 09:15:02;;;;;;;27.15;17.35;;;;;;;;;;4987573;28;100221;-72
2023/09/02 09:17:30;;;;;;;27.45;17.20;;;;;;;;;;4988265;28;98897;-73
2023/09/02 09:19:59;;;;;;;27.77;17.67;;;;;;;;;;4980406;28;99342;-73
2023/09/02 09:22:26;;;;;;;34.83;18.13;;;;;;;;;;4967873;28;100361;-74
2023/09/02 09:24:53;;;;;;;29.58;18.90;;;;;;;;;;4977790;28;99947;-73
2023/09/02 09:27:19;;;;;;;26.42;18.58;;;;;;;;;;4988234;28;100946;-72
2023/09/02 09:29:46;;;;;;;29.08;18.23;;;;;;;;;;4987889;28;99578;-72
2023/09/02 09:32:14;;;;;;;27.00;19.60;;;;;;;;;;4988408;28;99177;-73
2023/09/02 09:34:41;;;;;;;33.33;20.17;;;;;;;;;;4986333;28;99912;-74
2023/09/02 09:37:09;;;;;;;30.95;19.30;;;;;;;;;;4967867;28;100032;-74
2023/09/02 09:39:43;;;;;;;31.00;19.92;;;;;;;;;;4967975;28;100344;-74
2023/09/02 09:42:10;;;;;;;30.55;20.05;;;;;;;;;;4968568;28;99442;-74
2023/09/02 09:44:53;;;;;;;30.13;19.40;;;;;;;;;;4968473;28;99178;-74
2023/09/02 09:47:20;;;;;;;33.15;19.00;;;;;;;;;;4968176;28;100030;-75
2023/09/02 09:49:49;;;;;;;24.48;18.23;;;;;;;;;;4966863;28;100000;-74
2023/09/02 09:52:17;;;;;;;26.70;17.50;;;;;;;;;;4968254;28;99016;-73
2023/09/02 09:54:52;;;;;;;23.58;16.60;;;;;;;;;;4968180;28;100036;-73
2023/09/02 09:57:29;;;;;;;24.40;16.42;;;;;;;;;;4970542;28;99402;-73
2023/09/02 09:59:56;;;;;;;23.33;16.60;;;;;;;;;;4968826;28;99651;-73
2023/09/02 10:02:22;;;;;;;26.98;17.17;;;;;;;;;;4967824;28;99179;-73
2023/09/02 10:04:56;;;;;;;21.92;16.15;;;;;;;;;;4967517;28;99244;-72
2023/09/02 10:07:32;;;;;;;18.70;13.55;;;;;;;;;;4968305;28;102247;-73
2023/09/02 10:10:00;;;;;;;18.63;14.68;;;;;;;;;;4968215;28;100207;-73
2023/09/02 10:12:33;;;;;;;23.23;15.38;;;;;;;;;;4966785;28;100245;-73
2023/09/02 10:15:04;;;;;;;22.67;15.68;;;;;;;;;;4967247;28;100025;-75
2023/09/02 10:17:31;;;;;;;23.35;16.45;;;;;;;;;;4970149;28;100208;-74
2023/09/02 10:19:57;;;;;;;21.48;15.73;;;;;;;;;;4967111;28;99866;-74
2023/09/02 10:22:29;;;;;;;21.48;14.50;;;;;;;;;;4968516;28;99418;-74
2023/09/02 10:25:05;;;;;;;19.77;15.95;;;;;;;;;;4967388;28;100101;-74
2023/09/02 10:27:35;;;;;;;19.90;15.68;;;;;;;;;;4967405;28;99402;-74
2023/09/02 10:30:02;;;;;;;21.52;16.00;;;;;;;;;;4967794;28;100331;-74
2023/09/02 10:32:36;;;;;;;20.55;15.98;;;;;;;;;;4967316;28;100134;-73
2023/09/02 10:35:06;;;;;;;25.55;17.25;;;;;;;;;;4967848;28;99215;-74
2023/09/02 10:37:43;;;;;;;21.08;16.40;;;;;;;;;;4967236;28;100262;-74
2023/09/02 10:40:15;;;;;;;23.45;16.65;;;;;;;;;;4969944;28;99325;-74
2023/09/02 10:42:42;;;;;;;25.27;16.73;;;;;;;;;;4967784;28;101441;-74
2023/09/02 10:45:08;;;;;;;24.38;17.50;;;;;;;;;;4967627;28;99020;-74
2023/09/02 10:47:36;;;;;;;23.75;17.67;;;;;;;;;;4966340;28;100523;-73
2023/09/02 10:50:03;;;;;;;29.63;19.77;;;;;;;;;;4967215;28;100414;-73
2023/09/02 10:52:30;;;;;;;28.63;19.17;;;;;;;;;;4967414;28;98884;-74
2023/09/02 10:55:02;;;;;;;28.70;18.85;;;;;;;;;;4967648;28;100164;-75
2023/09/02 10:57:29;;;;;;;26.42;18.45;;;;;;;;;;4967692;28;99696;-74
2023/09/02 11:00:28;;;;;;;28.83;18.15;;;;;;;;;;4966651;28;100273;-74
2023/09/02 11:02:56;;;;;;;25.25;17.73;;;;;;;;;;4960520;28;101050;-74
2023/09/02 11:05:27;;;;;;;23.30;16.20;;;;;;;;;;4969037;28;99261;-75
2023/09/02 11:07:54;;;;;;;24.48;16.80;;;;;;;;;;4967477;28;100790;-75
2023/09/02 11:10:21;;;;;;;22.60;17.08;;;;;;;;;;4966941;28;100135;-75
2023/09/02 11:12:57;;;;;;;25.80;16.90;;;;;;;;;;4967235;28;100470;-74
2023/09/02 11:15:23;;;;;;;23.83;17.67;;;;;;;;;;4965372;28;99270;-74
2023/09/02 11:17:50;;;;;;;26.52;15.93;;;;;;;;;;4967051;28;100274;-73
2023/09/02 11:20:19;;;;;;;23.63;16.75;;;;;;;;;;4966975;28;99482;-75
2023/09/02 11:22:51;;;;;;;23.75;16.58;;;;;;;;;;4966852;28;100090;-74
2023/09/02 11:25:28;;;;;;;20.60;16.37;;;;;;;;;;4970057;28;99341;-74
2023/09/02 11:27:55;;;;;;;25.73;17.13;;;;;;;;;;4966128;28;99160;-73
2023/09/02 11:30:22;;;;;;;21.83;16.33;;;;;;;;;;4966308;28;102766;-73
2023/09/02 11:32:49;;;;;;;26.73;17.92;;;;;;;;;;4966963;28;100111;-73
2023/09/02 11:35:22;;;;;;;24.20;17.45;;;;;;;;;;4966312;28;100138;-74
2023/09/02 11:37:48;;;;;;;25.40;18.15;;;;;;;;;;4967159;28;100247;-73
2023/09/02 11:40:16;;;;;;;25.33;17.27;;;;;;;;;;4966608;28;99004;-73
2023/09/02 11:42:48;;;;;;;21.92;16.38;;;;;;;;;;4967043;28;98816;-74
2023/09/02 11:45:15;;;;;;;20.25;15.40;;;;;;;;;;4966347;28;100512;-74
2023/09/02 11:47:42;;;;;;;22.00;17.17;;;;;;;;;;4970701;28;100394;-73
2023/09/02 11:50:13;;;;;;;22.38;15.20;;;;;;;;;;4966041;28;102040;-73
2023/09/02 11:52:40;;;;;;;20.00;16.10;;;;;;;;;;4966628;28;99935;-74
2023/09/02 11:55:13;;;;;;;19.77;15.95;;;;;;;;;;4967303;28;99396;-74
2023/09/02 11:57:39;;;;;;;18.42;15.55;;;;;;;;;;4981449;28;99501;-73
2023/09/02 12:00:07;;;;;;;18.95;15.05;;;;;;;;;;4966866;28;99515;-74
2023/09/02 12:02:34;;;;;;;18.05;14.57;;;;;;;;;;4966590;28;99775;-73
2023/09/02 12:05:01;;;;;;;16.27;14.27;;;;;;;;;;4965891;28;100104;-74
2023/09/02 12:07:27;;;;;;;19.00;14.85;;;;;;;;;;4966270;28;100161;-73
2023/09/02 12:09:55;;;;;;;16.10;14.35;;;;;;;;;;4969330;28;99320;-74
2023/09/02 12:12:21;;;;;;;16.63;14.25;;;;;;;;;;4966829;28;100973;-74
2023/09/02 12:14:47;;;;;;;16.90;15.02;;;;;;;;;;4966314;28;98482;-74
2023/09/02 12:17:15;;;;;;;15.60;13.98;;;;;;;;;;4965702;28;99428;-73
2023/09/02 12:19:42;;;;;;;15.73;14.13;;;;;;;;;;4965736;28;100319;-73
2023/09/02 12:22:08;;;;;;;17.48;15.05;;;;;;;;;;4975898;28;100647;-73
2023/09/02 12:24:35;;;;;;;15.80;14.02;;;;;;;;;;4985440;28;99535;-74
2023/09/02 12:27:02;;;;;;;20.50;14.73;;;;;;;;;;4986474;28;99087;-75
2023/09/02 12:29:29;;;;;;;20.98;15.57;;;;;;;;;;4989215;28;99716;-75
2023/09/02 12:32:00;;;;;;;18.60;14.43;;;;;;;;;;4985885;28;99904;-74
2023/09/02 12:34:33;;;;;;;18.80;14.02;;;;;;;;;;4985639;28;100168;-73
2023/09/02 12:37:16;;;;;;;16.98;12.95;;;;;;;;;;4988210;28;100002;-73
2023/09/02 12:39:43;;;;;;;17.48;14.25;;;;;;;;;;4988651;28;98979;-73
2023/09/02 12:42:16;;;;;;;17.08;14.20;;;;;;;;;;4989534;28;99284;-73
2023/09/02 12:44:48;;;;;;;16.48;13.60;;;;;;;;;;4988839;28;101786;-74
2023/09/02 12:47:22;;;;;;;20.08;14.85;;;;;;;;;;4988323;28;100137;-74
2023/09/02 12:49:51;;;;;;;21.38;15.38;;;;;;;;;;4989428;28;100256;-74
2023/09/02 12:52:19;;;;;;;19.02;13.82;;;;;;;;;;4992019;28;99162;-74
2023/09/02 12:54:53;;;;;;;17.02;13.25;;;;;;;;;;4989750;28;98876;-72
2023/09/02 12:57:20;;;;;;;17.77;12.98;;;;;;;;;;4973244;28;99498;-73
2023/09/02 12:59:47;;;;;;;18.92;13.05;;;;;;;;;;4988362;28;99704;-74
2023/09/02 13:02:13;;;;;;;15.77;12.35;;;;;;;;;;4975369;28;100184;-75
2023/09/02 13:04:40;;;;;;;15.40;11.98;;;;;;;;;;4969062;28;100205;-76
2023/09/02 13:07:06;;;;;;;14.48;11.80;;;;;;;;;;4967978;28;100636;-74
2023/09/02 13:09:33;;;;;;;16.75;13.25;;;;;;;;;;4968080;28;100522;-75
2023/09/02 13:12:01;;;;;;;20.52;13.27;;;;;;;;;;4968994;28;100485;-74
2023/09/02 13:14:30;;;;;;;16.80;13.18;;;;;;;;;;4971154;28;100144;-74
2023/09/02 13:16:58;;;;;;;15.32;12.60;;;;;;;;;;4968722;28;99454;-74
2023/09/02 13:19:24;;;;;;;14.65;11.60;;;;;;;;;;4968743;28;99004;-72
2023/09/02 13:21:51;;;;;;;16.92;13.20;;;;;;;;;;4968385;28;99997;-72
2023/09/02 13:24:19;;;;;;;20.65;13.05;;;;;;;;;;4968349;28;101065;-74
2023/09/02 13:26:46;;;;;;;16.85;12.05;;;;;;;;;;4969448;28;98898;-74
2023/09/02 13:29:15;;;;;;;16.83;11.43;;;;;;;;;;4967647;28;99484;-74
2023/09/02 13:31:43;;;;;;;15.05;11.98;;;;;;;;;;4968642;28;100385;-74
2023/09/02 13:34:21;;;;;;;14.93;11.40;;;;;;;;;;4969009;28;99254;-75
2023/09/02 13:36:47;;;;;;;14.70;11.45;;;;;;;;;;4971581;28;100148;-75
2023/09/02 13:39:14;;;;;;;11.02;9.90;;;;;;;;;;4968429;28;98553;-75
2023/09/02 13:41:40;;;;;;;14.93;11.02;;;;;;;;;;4970219;28;99914;-75
2023/09/02 13:44:10;;;;;;;16.13;11.20;;;;;;;;;;4968241;28;99246;-75
2023/09/02 13:46:37;;;;;;;14.27;11.15;;;;;;;;;;4968525;28;99956;-75
2023/09/02 13:49:04;;;;;;;22.05;12.07;;;;;;;;;;4967117;28;101300;-76
2023/09/02 13:51:31;;;;;;;17.27;11.38;;;;;;;;;;4967974;28;99482;-74
2023/09/02 13:53:58;;;;;;;13.30;11.18;;;;;;;;;;4988479;28;100080;-76
2023/09/02 13:56:24;;;;;;;15.85;11.07;;;;;;;;;;4979857;28;100315;-76
2023/09/02 13:58:51;;;;;;;13.27;10.77;;;;;;;;;;4971825;28;100211;-74
2023/09/02 14:01:17;;;;;;;12.15;9.65;;;;;;;;;;4975460;28;99870;-74
2023/09/02 14:03:44;;;;;;;10.98;8.88;;;;;;;;;;4987413;28;99494;-75
2023/09/02 14:06:11;;;;;;;9.40;8.38;;;;;;;;;;4988165;28;99846;-74
2023/09/02 14:08:38;;;;;;;9.77;8.85;;;;;;;;;;4980151;28;99603;-74
2023/09/02 14:11:05;;;;;;;9.73;8.27;;;;;;;;;;4967327;28;100180;-74
2023/09/02 14:13:37;;;;;;;9.65;8.63;;;;;;;;;;4967499;28;100293;-74